sensor_id;sensor_type;location;lat;lon;timestamp;pressure;altitude;pressure_sealevel;temperature;humidity
71004;BME280;59025;42.050;-8.660;2023-01-16T00:00:25;101527.47;;;10.99;100.00
71004;BME280;59025;42.050;-8.660;2023-01-16T00:02:53;101511.03;;;11.00;100.00
71004;BME280;59025;42.050;-8.660;2023-01-16T00:05:20;101507.47;;;11.01;100.00
71004;BME280;59025;42.050;-8.660;2023-01-16T00:07:48;101505.00;;;11.07;100.00
71004;BME280;59025;42.050;-8.660;2023-01-16T00:10:16;101482.00;;;11.06;100.00
71004;BME280;59025;42.050;-8.660;2023-01-16T00:12:47;101491.03;;;11.16;100.00
71004;BME280;59025;42.050;-8.660;2023-01-16T00:15:16;101484.84;;;11.11;100.00
71004;BME280;59025;42.050;-8.660;2023-01-16T00:17:44;101474.69;;;11.24;100.00
71004;BME280;59025;42.050;-8.660;2023-01-16T00:20:11;101479.22;;;11.22;100.00
71004;BME280;59025;42.050;-8.660;2023-01-16T00:22:39;101462.22;;;11.27;100.00
71004;BME280;59025;42.050;-8.660;2023-01-16T00:25:09;101457.06;;;11.27;100.00
71004;BME280;59025;42.050;-8.660;2023-01-16T00:27:36;101481.63;;;11.23;100.00
71004;BME280;59025;42.050;-8.660;2023-01-16T00:30:06;101463.38;;;11.25;100.00
71004;BME280;59025;42.050;-8.660;2023-01-16T00:32:35;101449.22;;;11.14;100.00
71004;BME280;59025;42.050;-8.660;2023-01-16T00:35:03;101477.72;;;11.13;100.00
71004;BME280;59025;42.050;-8.660;2023-01-16T00:37:31;101453.91;;;11.25;100.00
71004;BME280;59025;42.050;-8.660;2023-01-16T00:39:58;101449.19;;;11.29;100.00
71004;BME280;59025;42.050;-8.660;2023-01-16T00:42:26;101446.78;;;11.27;100.00
71004;BME280;59025;42.050;-8.660;2023-01-16T00:44:53;101447.47;;;11.36;100.00
71004;BME280;59025;42.050;-8.660;2023-01-16T00:47:21;101464.34;;;11.38;100.00
71004;BME280;59025;42.050;-8.660;2023-01-16T00:49:50;101447.72;;;11.41;100.00
71004;BME280;59025;42.050;-8.660;2023-01-16T00:52:18;101421.16;;;11.40;100.00
71004;BME280;59025;42.050;-8.660;2023-01-16T00:54:45;101430.06;;;11.38;100.00
71004;BME280;59025;42.050;-8.660;2023-01-16T00:57:13;101413.63;;;11.39;100.00
71004;BME280;59025;42.050;-8.660;2023-01-16T00:59:41;101409.69;;;11.43;100.00
71004;BME280;59025;42.050;-8.660;2023-01-16T01:02:08;101387.84;;;11.39;100.00
71004;BME280;59025;42.050;-8.660;2023-01-16T01:04:36;101389.63;;;11.38;100.00
71004;BME280;59025;42.050;-8.660;2023-01-16T01:07:05;101399.66;;;11.48;100.00
71004;BME280;59025;42.050;-8.660;2023-01-16T01:09:33;101396.50;;;11.52;100.00
71004;BME280;59025;42.050;-8.660;2023-01-16T01:12:00;101388.94;;;11.51;100.00
71004;BME280;59025;42.050;-8.660;2023-01-16T01:14:28;101380.94;;;11.60;100.00
71004;BME280;59025;42.050;-8.660;2023-01-16T01:16:56;101363.38;;;11.49;100.00
71004;BME280;59025;42.050;-8.660;2023-01-16T01:19:23;101348.25;;;11.61;100.00
71004;BME280;59025;42.050;-8.660;2023-01-16T01:21:51;101348.09;;;11.69;100.00
71004;BME280;59025;42.050;-8.660;2023-01-16T01:24:20;101367.31;;;11.66;100.00
71004;BME280;59025;42.050;-8.660;2023-01-16T01:26:48;101349.66;;;11.63;100.00
71004;BME280;59025;42.050;-8.660;2023-01-16T01:29:15;101369.75;;;11.74;100.00
71004;BME280;59025;42.050;-8.660;2023-01-16T01:31:43;101356.47;;;11.77;100.00
71004;BME280;59025;42.050;-8.660;2023-01-16T01:34:10;101346.75;;;11.73;100.00
71004;BME280;59025;42.050;-8.660;2023-01-16T01:36:38;101348.50;;;11.72;100.00
71004;BME280;59025;42.050;-8.660;2023-01-16T01:39:05;101337.84;;;11.75;100.00
71004;BME280;59025;42.050;-8.660;2023-01-16T01:41:35;101312.25;;;11.74;100.00
71004;BME280;59025;42.050;-8.660;2023-01-16T01:46:46;101325.94;;;11.74;100.00
71004;BME280;59025;42.050;-8.660;2023-01-16T01:49:21;101302.41;;;11.84;100.00
71004;BME280;59025;42.050;-8.660;2023-01-16T01:51:52;101290.31;;;11.84;100.00
71004;BME280;59025;42.050;-8.660;2023-01-16T01:54:23;101295.88;;;11.88;100.00
71004;BME280;59025;42.050;-8.660;2023-01-16T01:56:57;101298.22;;;11.83;100.00
71004;BME280;59025;42.050;-8.660;2023-01-16T01:59:29;101297.09;;;11.92;100.00
71004;BME280;59025;42.050;-8.660;2023-01-16T02:02:01;101286.94;;;11.84;100.00
71004;BME280;59025;42.050;-8.660;2023-01-16T02:04:33;101283.59;;;11.90;100.00
71004;BME280;59025;42.050;-8.660;2023-01-16T02:07:04;101280.38;;;11.81;100.00
71004;BME280;59025;42.050;-8.660;2023-01-16T02:09:33;101283.59;;;11.90;100.00
71004;BME280;59025;42.050;-8.660;2023-01-16T02:12:06;101302.75;;;11.74;100.00
71004;BME280;59025;42.050;-8.660;2023-01-16T02:14:37;101277.19;;;11.79;100.00
71004;BME280;59025;42.050;-8.660;2023-01-16T02:17:07;101268.72;;;11.92;100.00
71004;BME280;59025;42.050;-8.660;2023-01-16T02:19:57;101268.72;;;11.92;100.00
71004;BME280;59025;42.050;-8.660;2023-01-16T02:22:51;101247.91;;;11.93;100.00
71004;BME280;59025;42.050;-8.660;2023-01-16T02:31:31;101233.03;;;11.95;100.00
71004;BME280;59025;42.050;-8.660;2023-01-16T02:34:13;101248.72;;;11.94;100.00
71004;BME280;59025;42.050;-8.660;2023-01-16T02:36:52;101223.34;;;11.97;100.00
71004;BME280;59025;42.050;-8.660;2023-01-16T02:39:33;101232.13;;;12.09;100.00
71004;BME280;59025;42.050;-8.660;2023-01-16T02:42:10;101233.69;;;12.10;100.00
71004;BME280;59025;42.050;-8.660;2023-01-16T02:44:47;101224.19;;;12.11;100.00
71004;BME280;59025;42.050;-8.660;2023-01-16T02:47:22;101227.13;;;12.01;100.00
71004;BME280;59025;42.050;-8.660;2023-01-16T02:49:59;101221.34;;;11.99;100.00
71004;BME280;59025;42.050;-8.660;2023-01-16T02:52:32;101207.91;;;12.10;100.00
71004;BME280;59025;42.050;-8.660;2023-01-16T02:55:06;101218.63;;;12.14;100.00
71004;BME280;59025;42.050;-8.660;2023-01-16T02:57:38;101225.81;;;12.18;100.00
71004;BME280;59025;42.050;-8.660;2023-01-16T03:00:08;101245.41;;;12.13;100.00
71004;BME280;59025;42.050;-8.660;2023-01-16T03:02:39;101258.63;;;11.97;100.00
71004;BME280;59025;42.050;-8.660;2023-01-16T03:05:08;101264.97;;;11.94;100.00
71004;BME280;59025;42.050;-8.660;2023-01-16T03:07:49;101283.19;;;11.86;100.00
71004;BME280;59025;42.050;-8.660;2023-01-16T03:10:50;101292.13;;;11.63;100.00
71004;BME280;59025;42.050;-8.660;2023-01-16T03:13:30;101257.78;;;11.56;100.00
71004;BME280;59025;42.050;-8.660;2023-01-16T03:16:08;101242.31;;;11.56;100.00
71004;BME280;59025;42.050;-8.660;2023-01-16T03:18:44;101243.28;;;11.55;100.00
71004;BME280;59025;42.050;-8.660;2023-01-16T03:21:23;101221.50;;;11.57;100.00
71004;BME280;59025;42.050;-8.660;2023-01-16T03:24:01;101235.16;;;11.58;100.00
71004;BME280;59025;42.050;-8.660;2023-01-16T03:26:34;101236.44;;;11.62;100.00
71004;BME280;59025;42.050;-8.660;2023-01-16T03:29:07;101213.38;;;11.54;100.00
71004;BME280;59025;42.050;-8.660;2023-01-16T03:31:41;101210.38;;;11.57;100.00
71004;BME280;59025;42.050;-8.660;2023-01-16T03:34:19;101216.22;;;11.65;100.00
71004;BME280;59025;42.050;-8.660;2023-01-16T03:36:55;101198.81;;;11.74;100.00
71004;BME280;59025;42.050;-8.660;2023-01-16T03:39:25;101200.97;;;11.70;100.00
71004;BME280;59025;42.050;-8.660;2023-01-16T03:42:01;101181.19;;;11.77;100.00
71004;BME280;59025;42.050;-8.660;2023-01-16T03:44:35;101207.72;;;11.71;100.00
71004;BME280;59025;42.050;-8.660;2023-01-16T03:47:06;101207.59;;;11.79;100.00
71004;BME280;59025;42.050;-8.660;2023-01-16T03:49:40;101182.81;;;11.85;100.00
71004;BME280;59025;42.050;-8.660;2023-01-16T03:52:12;101189.13;;;11.82;100.00
71004;BME280;59025;42.050;-8.660;2023-01-16T03:54:45;101177.19;;;11.75;100.00
71004;BME280;59025;42.050;-8.660;2023-01-16T03:57:20;101182.34;;;11.75;100.00
71004;BME280;59025;42.050;-8.660;2023-01-16T03:59:50;101162.72;;;11.74;100.00
71004;BME280;59025;42.050;-8.660;2023-01-16T04:02:22;101147.44;;;11.66;100.00
71004;BME280;59025;42.050;-8.660;2023-01-16T04:04:59;101155.94;;;11.60;100.00
71004;BME280;59025;42.050;-8.660;2023-01-16T04:07:31;101156.91;;;11.59;100.00
71004;BME280;59025;42.050;-8.660;2023-01-16T04:10:04;101144.81;;;11.59;100.00
71004;BME280;59025;42.050;-8.660;2023-01-16T04:12:35;101149.25;;;11.72;100.00
71004;BME280;59025;42.050;-8.660;2023-01-16T04:15:07;101159.78;;;11.77;100.00
71004;BME280;59025;42.050;-8.660;2023-01-16T04:17:35;101160.19;;;11.80;100.00
71004;BME280;59025;42.050;-8.660;2023-01-16T04:20:07;101165.75;;;11.84;100.00
71004;BME280;59025;42.050;-8.660;2023-01-16T04:22:36;101137.56;;;11.82;100.00
71004;BME280;59025;42.050;-8.660;2023-01-16T04:25:05;101126.28;;;11.77;100.00
71004;BME280;59025;42.050;-8.660;2023-01-16T04:27:34;101143.31;;;11.78;100.00
71004;BME280;59025;42.050;-8.660;2023-01-16T04:30:01;101150.25;;;11.77;100.00
71004;BME280;59025;42.050;-8.660;2023-01-16T04:32:29;101148.69;;;11.83;100.00
71004;BME280;59025;42.050;-8.660;2023-01-16T04:34:57;101148.06;;;11.74;100.00
71004;BME280;59025;42.050;-8.660;2023-01-16T04:37:26;101146.25;;;11.68;100.00
71004;BME280;59025;42.050;-8.660;2023-01-16T04:39:53;101136.19;;;11.73;100.00
71004;BME280;59025;42.050;-8.660;2023-01-16T04:42:21;101134.78;;;11.77;100.00
71004;BME280;59025;42.050;-8.660;2023-01-16T04:44:49;101122.50;;;11.79;100.00
71004;BME280;59025;42.050;-8.660;2023-01-16T04:47:16;101130.25;;;11.79;100.00
71004;BME280;59025;42.050;-8.660;2023-01-16T04:49:44;101136.81;;;11.88;100.00
71004;BME280;59025;42.050;-8.660;2023-01-16T04:52:12;101121.34;;;11.88;100.00
71004;BME280;59025;42.050;-8.660;2023-01-16T04:54:41;101131.22;;;11.78;100.00
71004;BME280;59025;42.050;-8.660;2023-01-16T04:57:09;101139.31;;;11.69;100.00
71004;BME280;59025;42.050;-8.660;2023-01-16T04:59:36;101140.31;;;11.68;100.00
71004;BME280;59025;42.050;-8.660;2023-01-16T05:02:04;101144.31;;;11.77;100.00
71004;BME280;59025;42.050;-8.660;2023-01-16T05:04:32;101130.63;;;11.76;100.00
71004;BME280;59025;42.050;-8.660;2023-01-16T05:06:59;101132.41;;;11.76;100.00
71004;BME280;59025;42.050;-8.660;2023-01-16T05:09:27;101142.72;;;11.82;100.00
71004;BME280;59025;42.050;-8.660;2023-01-16T05:11:56;101134.22;;;11.82;100.00
71004;BME280;59025;42.050;-8.660;2023-01-16T05:14:24;101137.56;;;11.82;100.00
71004;BME280;59025;42.050;-8.660;2023-01-16T05:16:51;101117.09;;;11.68;100.00
71004;BME280;59025;42.050;-8.660;2023-01-16T05:19:19;101105.44;;;11.78;100.00
71004;BME280;59025;42.050;-8.660;2023-01-16T05:21:46;101122.47;;;11.73;100.00
71004;BME280;59025;42.050;-8.660;2023-01-16T05:24:14;101133.59;;;11.73;100.00
71004;BME280;59025;42.050;-8.660;2023-01-16T05:26:41;101137.53;;;11.69;100.00
71004;BME280;59025;42.050;-8.660;2023-01-16T05:29:11;101126.81;;;11.66;100.00
71004;BME280;59025;42.050;-8.660;2023-01-16T05:31:38;101129.22;;;11.67;100.00
71004;BME280;59025;42.050;-8.660;2023-01-16T05:34:07;101105.78;;;11.62;100.00
71004;BME280;59025;42.050;-8.660;2023-01-16T05:36:35;101105.72;;;11.56;100.00
71004;BME280;59025;42.050;-8.660;2023-01-16T05:39:03;101100.81;;;11.61;100.00
71004;BME280;59025;42.050;-8.660;2023-01-16T05:41:30;101102.59;;;11.60;100.00
71004;BME280;59025;42.050;-8.660;2023-01-16T05:43:58;101101.41;;;11.63;100.00
71004;BME280;59025;42.050;-8.660;2023-01-16T05:46:27;101111.56;;;11.71;100.00
71004;BME280;59025;42.050;-8.660;2023-01-16T05:48:55;101089.56;;;11.68;100.00
71004;BME280;59025;42.050;-8.660;2023-01-16T05:51:22;101096.91;;;11.78;100.00
71004;BME280;59025;42.050;-8.660;2023-01-16T05:53:50;101070.16;;;11.79;100.00
71004;BME280;59025;42.050;-8.660;2023-01-16T05:56:20;101068.94;;;11.75;100.00
71004;BME280;59025;42.050;-8.660;2023-01-16T05:58:48;101064.81;;;11.80;100.00
71004;BME280;59025;42.050;-8.660;2023-01-16T06:01:16;101074.16;;;11.88;100.00
71004;BME280;59025;42.050;-8.660;2023-01-16T06:03:45;101079.03;;;11.70;100.00
71004;BME280;59025;42.050;-8.660;2023-01-16T06:06:12;101055.66;;;11.71;100.00
71004;BME280;59025;42.050;-8.660;2023-01-16T06:08:40;101049.50;;;11.72;100.00
71004;BME280;59025;42.050;-8.660;2023-01-16T06:11:08;101025.91;;;11.69;100.00
71004;BME280;59025;42.050;-8.660;2023-01-16T06:13:35;101043.34;;;11.67;100.00
71004;BME280;59025;42.050;-8.660;2023-01-16T06:16:03;101048.09;;;11.70;100.00
71004;BME280;59025;42.050;-8.660;2023-01-16T06:18:31;101091.09;;;11.63;100.00
71004;BME280;59025;42.050;-8.660;2023-01-16T06:21:00;101070.88;;;11.60;100.00
71004;BME280;59025;42.050;-8.660;2023-01-16T06:23:27;101073.69;;;11.65;100.00
71004;BME280;59025;42.050;-8.660;2023-01-16T06:25:56;101065.34;;;11.63;100.00
71004;BME280;59025;42.050;-8.660;2023-01-16T06:28:23;101057.34;;;11.58;100.00
71004;BME280;59025;42.050;-8.660;2023-01-16T06:30:51;101037.16;;;11.61;100.00
71004;BME280;59025;42.050;-8.660;2023-01-16T06:33:19;101055.19;;;11.55;100.00
71004;BME280;59025;42.050;-8.660;2023-01-16T06:35:47;101059.59;;;11.61;100.00
71004;BME280;59025;42.050;-8.660;2023-01-16T06:38:17;101059.16;;;11.57;100.00
71004;BME280;59025;42.050;-8.660;2023-01-16T06:40:44;101055.50;;;11.79;100.00
71004;BME280;59025;42.050;-8.660;2023-01-16T06:43:12;101047.69;;;11.66;100.00
71004;BME280;59025;42.050;-8.660;2023-01-16T06:45:41;101045.94;;;11.73;100.00
71004;BME280;59025;42.050;-8.660;2023-01-16T06:48:10;101046.72;;;11.74;100.00
71004;BME280;59025;42.050;-8.660;2023-01-16T06:50:37;101037.97;;;11.62;100.00
71004;BME280;59025;42.050;-8.660;2023-01-16T06:53:05;101051.47;;;11.70;100.00
71004;BME280;59025;42.050;-8.660;2023-01-16T06:55:34;101070.09;;;11.59;100.00
71004;BME280;59025;42.050;-8.660;2023-01-16T06:58:02;101070.00;;;11.53;100.00
71004;BME280;59025;42.050;-8.660;2023-01-16T07:00:29;101052.59;;;11.55;100.00
71004;BME280;59025;42.050;-8.660;2023-01-16T07:02:57;101048.03;;;11.57;100.00
71004;BME280;59025;42.050;-8.660;2023-01-16T07:05:26;101033.41;;;11.64;100.00
71004;BME280;59025;42.050;-8.660;2023-01-16T07:07:54;101039.56;;;11.63;100.00
71004;BME280;59025;42.050;-8.660;2023-01-16T07:10:22;101052.66;;;11.68;100.00
71004;BME280;59025;42.050;-8.660;2023-01-16T07:12:52;101056.44;;;11.72;100.00
71004;BME280;59025;42.050;-8.660;2023-01-16T07:15:21;101058.22;;;11.71;100.00
71004;BME280;59025;42.050;-8.660;2023-01-16T07:18:07;101055.28;;;11.81;100.00
71004;BME280;59025;42.050;-8.660;2023-01-16T07:20:55;101045.94;;;11.80;100.00
71004;BME280;59025;42.050;-8.660;2023-01-16T07:23:42;101060.63;;;11.73;100.00
71004;BME280;59025;42.050;-8.660;2023-01-16T07:26:12;101046.16;;;11.72;100.00
71004;BME280;59025;42.050;-8.660;2023-01-16T07:28:44;101051.50;;;11.77;100.00
71004;BME280;59025;42.050;-8.660;2023-01-16T07:31:13;101054.28;;;11.75;100.00
71004;BME280;59025;42.050;-8.660;2023-01-16T07:33:41;101042.38;;;11.81;100.00
71004;BME280;59025;42.050;-8.660;2023-01-16T07:36:09;101055.84;;;11.70;100.00
71004;BME280;59025;42.050;-8.660;2023-01-16T07:38:36;101050.31;;;11.86;100.00
71004;BME280;59025;42.050;-8.660;2023-01-16T07:41:04;101061.81;;;11.77;100.00
71004;BME280;59025;42.050;-8.660;2023-01-16T07:43:32;101058.69;;;11.88;100.00
71004;BME280;59025;42.050;-8.660;2023-01-16T07:46:01;101068.38;;;11.86;100.00
71004;BME280;59025;42.050;-8.660;2023-01-16T07:48:28;101044.59;;;11.84;100.00
71004;BME280;59025;42.050;-8.660;2023-01-16T07:50:57;101044.19;;;11.80;100.00
71004;BME280;59025;42.050;-8.660;2023-01-16T07:53:27;101042.19;;;11.82;100.00
71004;BME280;59025;42.050;-8.660;2023-01-16T07:55:56;101036.06;;;11.90;100.00
71004;BME280;59025;42.050;-8.660;2023-01-16T07:58:25;101047.75;;;11.86;100.00
71004;BME280;59025;42.050;-8.660;2023-01-16T08:00:53;101052.75;;;11.94;100.00
71004;BME280;59025;42.050;-8.660;2023-01-16T08:12:43;101050.38;;;12.25;100.00
71004;BME280;59025;42.050;-8.660;2023-01-16T08:15:11;101053.16;;;12.17;100.00
71004;BME280;59025;42.050;-8.660;2023-01-16T08:17:38;101061.28;;;12.07;100.00
71004;BME280;59025;42.050;-8.660;2023-01-16T08:20:08;101043.22;;;12.01;100.00
71004;BME280;59025;42.050;-8.660;2023-01-16T08:22:41;101014.28;;;12.12;100.00
71004;BME280;59025;42.050;-8.660;2023-01-16T08:25:09;101001.16;;;12.20;100.00
71004;BME280;59025;42.050;-8.660;2023-01-16T08:48:57;100985.25;;;12.49;100.00
71004;BME280;59025;42.050;-8.660;2023-01-16T08:57:47;100964.19;;;12.65;100.00
71004;BME280;59025;42.050;-8.660;2023-01-16T09:00:15;100978.88;;;12.71;100.00
71004;BME280;59025;42.050;-8.660;2023-01-16T09:02:45;100970.16;;;12.65;100.00
71004;BME280;59025;42.050;-8.660;2023-01-16T09:05:14;100980.28;;;12.67;100.00
71004;BME280;59025;42.050;-8.660;2023-01-16T09:07:42;100988.81;;;12.67;100.00
71004;BME280;59025;42.050;-8.660;2023-01-16T09:10:10;101000.38;;;12.58;100.00
71004;BME280;59025;42.050;-8.660;2023-01-16T09:12:39;101000.09;;;12.79;100.00
71004;BME280;59025;42.050;-8.660;2023-01-16T09:15:24;100980.06;;;12.81;100.00
71004;BME280;59025;42.050;-8.660;2023-01-16T09:17:52;100985.22;;;12.75;100.00
71004;BME280;59025;42.050;-8.660;2023-01-16T09:20:21;101013.63;;;12.75;100.00
71004;BME280;59025;42.050;-8.660;2023-01-16T09:22:52;100993.81;;;12.56;100.00
71004;BME280;59025;42.050;-8.660;2023-01-16T09:25:23;100978.09;;;12.64;100.00
71004;BME280;59025;42.050;-8.660;2023-01-16T09:27:50;100984.06;;;12.64;100.00
71004;BME280;59025;42.050;-8.660;2023-01-16T09:30:18;100988.03;;;12.60;100.00
71004;BME280;59025;42.050;-8.660;2023-01-16T09:32:46;100973.31;;;12.67;100.00
71004;BME280;59025;42.050;-8.660;2023-01-16T09:35:14;100968.53;;;12.71;100.00
71004;BME280;59025;42.050;-8.660;2023-01-16T09:37:44;100948.88;;;12.76;100.00
71004;BME280;59025;42.050;-8.660;2023-01-16T09:40:15;100951.44;;;12.83;100.00
71004;BME280;59025;42.050;-8.660;2023-01-16T09:42:53;100950.22;;;12.85;100.00
71004;BME280;59025;42.050;-8.660;2023-01-16T09:45:40;100939.91;;;12.98;100.00
71004;BME280;59025;42.050;-8.660;2023-01-16T09:48:12;100945.47;;;12.89;100.00
71004;BME280;59025;42.050;-8.660;2023-01-16T09:50:45;100954.00;;;12.89;100.00
71004;BME280;59025;42.050;-8.660;2023-01-16T09:53:19;100958.38;;;12.89;100.00
71004;BME280;59025;42.050;-8.660;2023-01-16T09:56:07;100955.75;;;12.95;100.00
71004;BME280;59025;42.050;-8.660;2023-01-16T09:58:58;100958.97;;;12.91;100.00
71004;BME280;59025;42.050;-8.660;2023-01-16T10:01:32;100958.75;;;12.99;100.00
71004;BME280;59025;42.050;-8.660;2023-01-16T10:04:13;100958.75;;;12.92;100.00
71004;BME280;59025;42.050;-8.660;2023-01-16T10:06:50;100962.75;;;12.88;100.00
71004;BME280;59025;42.050;-8.660;2023-01-16T10:09:29;100959.78;;;12.78;100.00
71004;BME280;59025;42.050;-8.660;2023-01-16T10:12:04;100965.38;;;12.69;100.00
71004;BME280;59025;42.050;-8.660;2023-01-16T10:14:45;100954.63;;;12.85;100.00
71004;BME280;59025;42.050;-8.660;2023-01-16T10:17:22;100954.22;;;12.81;100.00
71004;BME280;59025;42.050;-8.660;2023-01-16T10:20:11;100956.00;;;12.87;100.00
71004;BME280;59025;42.050;-8.660;2023-01-16T10:22:57;100967.53;;;12.78;100.00
71004;BME280;59025;42.050;-8.660;2023-01-16T10:25:34;100956.63;;;12.76;100.00
71004;BME280;59025;42.050;-8.660;2023-01-16T10:28:19;100951.44;;;12.83;100.00
71004;BME280;59025;42.050;-8.660;2023-01-16T10:30:54;100955.56;;;12.90;100.00
71004;BME280;59025;42.050;-8.660;2023-01-16T10:33:29;100960.16;;;12.82;100.00
71004;BME280;59025;42.050;-8.660;2023-01-16T10:35:58;100963.00;;;12.74;100.00
71004;BME280;59025;42.050;-8.660;2023-01-16T10:38:33;100957.63;;;12.75;100.00
71004;BME280;59025;42.050;-8.660;2023-01-16T10:41:17;100961.59;;;12.78;100.00
71004;BME280;59025;42.050;-8.660;2023-01-16T10:44:06;100964.56;;;12.81;100.00
71004;BME280;59025;42.050;-8.660;2023-01-16T10:46:55;100961.56;;;12.84;100.00
71004;BME280;59025;42.050;-8.660;2023-01-16T10:49:40;100962.38;;;12.78;100.00
71004;BME280;59025;42.050;-8.660;2023-01-16T10:52:07;100962.75;;;12.82;100.00
71004;BME280;59025;42.050;-8.660;2023-01-16T10:54:35;100965.72;;;12.85;100.00
71004;BME280;59025;42.050;-8.660;2023-01-16T10:57:11;100952.03;;;12.85;100.00
71004;BME280;59025;42.050;-8.660;2023-01-16T10:59:42;100962.34;;;12.85;100.00
71004;BME280;59025;42.050;-8.660;2023-01-16T11:02:19;100966.91;;;12.89;100.00
71004;BME280;59025;42.050;-8.660;2023-01-16T11:04:52;100958.59;;;12.87;100.00
71004;BME280;59025;42.050;-8.660;2023-01-16T11:07:27;100957.59;;;12.82;100.00
71004;BME280;59025;42.050;-8.660;2023-01-16T11:09:56;100957.56;;;12.88;100.00
71004;BME280;59025;42.050;-8.660;2023-01-16T11:12:30;100943.28;;;12.92;100.00
71004;BME280;59025;42.050;-8.660;2023-01-16T11:15:22;100942.06;;;12.95;100.00
71004;BME280;59025;42.050;-8.660;2023-01-16T11:18:21;100937.69;;;13.02;100.00
71004;BME280;59025;42.050;-8.660;2023-01-16T11:20:56;100938.28;;;13.04;100.00
71004;BME280;59025;42.050;-8.660;2023-01-16T11:23:25;100929.41;;;13.24;100.00
71004;BME280;59025;42.050;-8.660;2023-01-16T11:25:55;100931.84;;;13.19;100.00
71004;BME280;59025;42.050;-8.660;2023-01-16T11:28:27;100938.38;;;13.22;100.00
71004;BME280;59025;42.050;-8.660;2023-01-16T11:30:57;100934.22;;;13.21;100.00
71004;BME280;59025;42.050;-8.660;2023-01-16T11:33:32;100975.56;;;13.21;100.00
71004;BME280;59025;42.050;-8.660;2023-01-16T11:36:02;100934.66;;;13.18;100.00
71004;BME280;59025;42.050;-8.660;2023-01-16T11:38:35;100937.03;;;13.13;100.00
71004;BME280;59025;42.050;-8.660;2023-01-16T11:41:05;100935.66;;;13.10;100.00
71004;BME280;59025;42.050;-8.660;2023-01-16T11:43:36;100925.13;;;13.12;100.00
71004;BME280;59025;42.050;-8.660;2023-01-16T11:46:37;100921.53;;;13.19;100.00
71004;BME280;59025;42.050;-8.660;2023-01-16T11:49:15;100906.78;;;13.20;100.00
71004;BME280;59025;42.050;-8.660;2023-01-16T11:51:43;100902.81;;;13.24;100.00
71004;BME280;59025;42.050;-8.660;2023-01-16T11:54:13;100904.84;;;13.15;100.00
71004;BME280;59025;42.050;-8.660;2023-01-16T11:56:47;100912.22;;;13.12;100.00
71004;BME280;59025;42.050;-8.660;2023-01-16T11:59:40;100899.31;;;13.12;100.00
71004;BME280;59025;42.050;-8.660;2023-01-16T12:02:24;100887.75;;;13.14;100.00
71004;BME280;59025;42.050;-8.660;2023-01-16T12:05:02;100877.66;;;13.06;100.00
71004;BME280;59025;42.050;-8.660;2023-01-16T12:08:02;100868.50;;;13.10;100.00
71004;BME280;59025;42.050;-8.660;2023-01-16T12:10:38;100868.63;;;13.22;100.00
71004;BME280;59025;42.050;-8.660;2023-01-16T12:13:11;100853.75;;;13.17;100.00
71004;BME280;59025;42.050;-8.660;2023-01-16T12:16:04;100858.53;;;13.14;100.00
71004;BME280;59025;42.050;-8.660;2023-01-16T12:18:43;100850.31;;;13.23;100.00
71004;BME280;59025;42.050;-8.660;2023-01-16T12:21:30;100841.13;;;13.34;100.00
71004;BME280;59025;42.050;-8.660;2023-01-16T12:24:20;100834.34;;;13.32;100.00
71004;BME280;59025;42.050;-8.660;2023-01-16T12:26:58;100813.44;;;13.41;100.00
71004;BME280;59025;42.050;-8.660;2023-01-16T12:29:41;100816.03;;;13.41;100.00
71004;BME280;59025;42.050;-8.660;2023-01-16T12:32:28;100812.56;;;13.22;100.00
71004;BME280;59025;42.050;-8.660;2023-01-16T12:35:16;100819.31;;;13.23;100.00
71004;BME280;59025;42.050;-8.660;2023-01-16T12:43:56;100791.63;;;13.06;100.00
71004;BME280;59025;42.050;-8.660;2023-01-16T12:46:31;100793.25;;;13.00;100.00
71004;BME280;59025;42.050;-8.660;2023-01-16T12:49:14;100790.47;;;12.95;100.00
71004;BME280;59025;42.050;-8.660;2023-01-16T12:51:54;100778.38;;;12.96;100.00
71004;BME280;59025;42.050;-8.660;2023-01-16T12:54:40;100768.22;;;12.94;100.00
71004;BME280;59025;42.050;-8.660;2023-01-16T12:57:31;100770.25;;;12.92;100.00
71004;BME280;59025;42.050;-8.660;2023-01-16T13:00:05;100763.44;;;13.04;100.00
71004;BME280;59025;42.050;-8.660;2023-01-16T13:02:39;100750.16;;;13.01;100.00
71004;BME280;59025;42.050;-8.660;2023-01-16T13:05:15;100745.56;;;13.03;100.00
71004;BME280;59025;42.050;-8.660;2023-01-16T13:07:50;100727.78;;;13.13;100.00
71004;BME280;59025;42.050;-8.660;2023-01-16T13:10:22;100720.06;;;13.13;100.00
71004;BME280;59025;42.050;-8.660;2023-01-16T13:13:13;100706.25;;;13.01;100.00
71004;BME280;59025;42.050;-8.660;2023-01-16T13:15:54;100700.63;;;13.04;100.00
71004;BME280;59025;42.050;-8.660;2023-01-16T13:18:26;100712.13;;;13.08;100.00
71004;BME280;59025;42.050;-8.660;2023-01-16T13:20:59;100705.59;;;13.05;100.00
71004;BME280;59025;42.050;-8.660;2023-01-16T13:23:32;100684.72;;;13.07;100.00
71004;BME280;59025;42.050;-8.660;2023-01-16T13:26:02;100689.94;;;13.00;100.00
71004;BME280;59025;42.050;-8.660;2023-01-16T13:28:36;100681.94;;;13.08;100.00
71004;BME280;59025;42.050;-8.660;2023-01-16T13:31:16;100672.50;;;12.96;100.00
71004;BME280;59025;42.050;-8.660;2023-01-16T13:33:49;100666.50;;;12.95;100.00
71004;BME280;59025;42.050;-8.660;2023-01-16T13:36:51;100657.38;;;12.93;100.00
71004;BME280;59025;42.050;-8.660;2023-01-16T13:39:43;100662.34;;;13.01;100.00
71004;BME280;59025;42.050;-8.660;2023-01-16T13:42:17;100661.31;;;13.02;100.00
71004;BME280;59025;42.050;-8.660;2023-01-16T13:44:48;100658.97;;;12.93;100.00
71004;BME280;59025;42.050;-8.660;2023-01-16T13:47:47;100647.03;;;12.99;100.00
71004;BME280;59025;42.050;-8.660;2023-01-16T13:50:22;100646.06;;;12.93;100.00